Time;durP1;ratioP1;P1;durP2;ratioP2;P2;SDS_P1;SDS_P2;PMS_P1;PMS_P2;Temp;Humidity;BMP_temperature;BMP_pressure;BME280_temperature;BME280_humidity;BME280_pressure;Samples;Min_cycle;Max_cycle;Signal;HPM_P1;HPM_P2
2023/04/27 00:00:50;;;;;;;10.80;2.88;;;1.80;87.80;;;;;;4929151;28;20061;-72
2023/04/27 00:03:17;;;;;;;11.40;3.05;;;1.80;88.10;;;;;;4950230;28;21280;-73
2023/04/27 00:05:44;;;;;;;15.93;3.42;;;1.80;88.20;;;;;;4950065;28;20499;-73
2023/04/27 00:08:11;;;;;;;17.27;3.53;;;1.80;88.50;;;;;;4949485;28;20296;-73
2023/04/27 00:10:38;;;;;;;10.55;3.63;;;1.70;89.00;;;;;;4949584;28;20141;-72
2023/04/27 00:13:05;;;;;;;8.27;3.15;;;1.70;89.10;;;;;;4949955;28;20058;-72
2023/04/27 00:15:31;;;;;;;17.38;3.58;;;1.70;89.00;;;;;;4953870;28;20053;-73
2023/04/27 00:17:58;;;;;;;15.05;3.17;;;1.70;88.80;;;;;;4963353;28;20051;-73
2023/04/27 00:20:25;;;;;;;14.30;3.38;;;1.60;89.00;;;;;;4964330;28;20065;-72
2023/04/27 00:22:52;;;;;;;23.55;4.10;;;1.60;89.10;;;;;;4963407;28;20469;-73
2023/04/27 00:25:19;;;;;;;9.27;3.63;;;1.60;89.50;;;;;;4964794;28;20506;-73
2023/04/27 00:27:46;;;;;;;19.17;3.10;;;1.60;89.50;;;;;;4964961;28;20066;-72
2023/04/27 00:30:13;;;;;;;14.63;3.20;;;1.50;89.60;;;;;;4963300;28;20054;-72
2023/04/27 00:32:41;;;;;;;12.88;3.10;;;1.60;89.90;;;;;;4950504;28;20456;-72
2023/04/27 00:35:08;;;;;;;13.25;4.07;;;1.50;89.80;;;;;;4949596;28;20526;-72
2023/04/27 00:37:35;;;;;;;17.63;3.67;;;1.60;90.20;;;;;;4950446;28;20388;-72
2023/04/27 00:40:05;;;;;;;9.00;3.60;;;1.50;90.40;;;;;;4963732;28;20149;-72
2023/04/27 00:42:32;;;;;;;11.35;3.42;;;1.50;90.60;;;;;;4949312;28;20062;-73
2023/04/27 00:44:59;;;;;;;11.57;3.63;;;1.60;91.20;;;;;;4953203;28;20059;-72
2023/04/27 00:47:28;;;;;;;16.00;3.47;;;1.50;91.30;;;;;;4954453;28;20158;-72
2023/04/27 00:49:55;;;;;;;13.02;4.03;;;1.50;91.30;;;;;;4953575;28;20051;-72
2023/04/27 00:52:22;;;;;;;11.68;3.47;;;1.50;91.70;;;;;;4953391;28;20063;-73
2023/04/27 00:54:51;;;;;;;9.65;4.05;;;1.50;91.50;;;;;;4952139;28;20076;-72
2023/04/27 00:57:18;;;;;;;13.73;3.58;;;1.50;91.60;;;;;;4936489;28;20560;-72
2023/04/27 00:59:45;;;;;;;17.73;3.92;;;1.50;92.00;;;;;;4954136;28;20067;-72
2023/04/27 01:02:12;;;;;;;19.50;4.25;;;1.50;92.00;;;;;;4952605;28;20480;-72
2023/04/27 01:04:40;;;;;;;10.80;3.60;;;1.50;92.10;;;;;;4952141;28;20059;-72
2023/04/27 01:07:07;;;;;;;10.13;3.92;;;1.50;92.30;;;;;;4952606;28;20701;-73
2023/04/27 01:09:34;;;;;;;15.20;4.28;;;1.50;92.50;;;;;;4966738;28;20051;-72
2023/04/27 01:12:02;;;;;;;23.95;4.63;;;1.50;92.70;;;;;;4952258;28;20055;-72
2023/04/27 01:14:28;;;;;;;14.73;3.92;;;1.50;92.20;;;;;;4954148;28;20564;-72
2023/04/27 01:16:55;;;;;;;13.77;4.10;;;1.50;92.20;;;;;;4935882;28;20725;-72
2023/04/27 01:19:22;;;;;;;15.93;3.30;;;1.50;92.40;;;;;;4953464;28;20190;-72
2023/04/27 01:21:49;;;;;;;13.77;4.00;;;1.40;92.40;;;;;;4952748;28;20061;-72
2023/04/27 01:24:16;;;;;;;15.90;4.53;;;1.40;92.40;;;;;;4952884;28;20055;-73
2023/04/27 01:26:43;;;;;;;12.15;3.85;;;1.40;92.50;;;;;;4953643;28;20065;-73
2023/04/27 01:29:10;;;;;;;13.02;3.80;;;1.40;92.70;;;;;;4953044;28;20691;-72
2023/04/27 01:31:37;;;;;;;15.32;4.35;;;1.40;92.70;;;;;;4952122;28;20562;-72
2023/04/27 01:34:04;;;;;;;14.73;3.80;;;1.40;93.00;;;;;;4935364;28;20046;-72
2023/04/27 01:36:31;;;;;;;10.90;3.72;;;1.40;93.00;;;;;;4952711;28;20146;-72
2023/04/27 01:38:58;;;;;;;16.40;3.72;;;1.40;93.10;;;;;;4953804;28;20050;-72
2023/04/27 01:41:25;;;;;;;11.88;4.15;;;1.40;92.80;;;;;;4953367;28;20479;-72
2023/04/27 01:43:52;;;;;;;10.50;3.72;;;1.30;92.70;;;;;;4967469;28;20059;-72
2023/04/27 01:46:19;;;;;;;12.32;4.07;;;1.30;92.90;;;;;;4952923;28;20142;-72
2023/04/27 01:48:46;;;;;;;11.13;3.63;;;1.30;93.00;;;;;;4968322;28;20062;-72
2023/04/27 01:51:13;;;;;;;18.77;4.53;;;1.30;92.80;;;;;;4951885;28;20051;-72
2023/04/27 01:53:41;;;;;;;15.70;3.95;;;1.30;93.00;;;;;;4961758;28;20609;-72
2023/04/27 01:56:09;;;;;;;26.70;3.80;;;1.20;92.80;;;;;;4949208;28;20510;-72
2023/04/27 01:58:36;;;;;;;14.02;3.42;;;1.10;92.90;;;;;;4945830;28;20211;-72
2023/04/27 02:01:03;;;;;;;14.63;4.35;;;1.20;93.50;;;;;;4946636;28;20578;-72
2023/04/27 02:03:29;;;;;;;12.73;3.25;;;1.10;93.40;;;;;;4946943;28;20105;-72
2023/04/27 02:05:56;;;;;;;17.50;4.28;;;1.10;93.10;;;;;;4960226;28;20059;-72
2023/04/27 02:08:23;;;;;;;11.93;3.97;;;1.00;93.00;;;;;;4944990;28;20058;-71
2023/04/27 02:10:50;;;;;;;13.80;4.05;;;1.00;93.70;;;;;;4944810;28;20528;-72
2023/04/27 02:13:17;;;;;;;9.68;3.88;;;1.00;93.90;;;;;;4944025;28;20150;-71
2023/04/27 02:15:44;;;;;;;21.38;4.07;;;1.00;93.60;;;;;;4944578;28;20213;-72
2023/04/27 02:18:11;;;;;;;11.48;3.00;;;0.90;93.80;;;;;;4945216;28;20049;-72
2023/04/27 02:20:38;;;;;;;10.52;4.80;;;0.90;93.50;;;;;;4943351;28;20415;-72
2023/04/27 02:23:05;;;;;;;18.83;3.70;;;0.90;93.50;;;;;;4960836;28;20062;-71
2023/04/27 02:25:35;;;;;;;10.20;4.00;;;0.80;93.50;;;;;;4953376;28;20059;-71
2023/04/27 02:28:02;;;;;;;15.35;4.75;;;0.70;93.80;;;;;;4930621;28;20047;-72
2023/04/27 02:30:29;;;;;;;8.95;3.85;;;0.70;93.80;;;;;;4950697;28;20141;-72
2023/04/27 02:32:59;;;;;;;21.30;4.55;;;0.60;94.40;;;;;;4964069;28;20165;-72
2023/04/27 02:35:26;;;;;;;12.93;3.83;;;0.60;94.30;;;;;;4964196;28;20062;-72
2023/04/27 02:37:53;;;;;;;12.93;4.50;;;0.60;95.10;;;;;;4951654;28;20065;-72
2023/04/27 02:40:20;;;;;;;19.13;4.15;;;0.60;94.70;;;;;;4951946;28;20756;-72
2023/04/27 02:42:47;;;;;;;13.65;4.18;;;0.60;95.10;;;;;;4951113;28;20058;-72
2023/04/27 02:45:13;;;;;;;10.25;3.63;;;0.60;95.30;;;;;;4951834;28;20055;-72
2023/04/27 02:47:40;;;;;;;14.70;3.97;;;0.60;95.70;;;;;;4930198;28;20055;-72
2023/04/27 02:50:08;;;;;;;13.63;3.92;;;0.60;95.60;;;;;;4949963;28;20284;-72
2023/04/27 02:52:35;;;;;;;14.27;4.72;;;0.60;95.80;;;;;;4954500;28;20047;-72
2023/04/27 02:55:01;;;;;;;17.63;4.22;;;0.60;95.90;;;;;;4949525;28;20047;-72
2023/04/27 02:57:28;;;;;;;19.75;4.43;;;0.60;95.70;;;;;;4951285;28;20054;-72
2023/04/27 02:59:55;;;;;;;15.07;4.88;;;0.60;95.80;;;;;;4934132;28;20624;-72
2023/04/27 03:02:22;;;;;;;23.35;4.40;;;0.60;96.20;;;;;;4951676;28;20301;-72
2023/04/27 03:04:53;;;;;;;18.23;3.67;;;0.50;96.00;;;;;;4951978;28;20098;-72
2023/04/27 03:07:21;;;;;;;10.73;4.70;;;0.40;96.30;;;;;;4949897;28;20176;-72
2023/04/27 03:09:48;;;;;;;14.23;4.90;;;0.50;96.70;;;;;;4954318;28;20519;-72
2023/04/27 03:12:15;;;;;;;9.70;4.32;;;0.50;96.90;;;;;;4952122;28;20051;-72
2023/04/27 03:14:41;;;;;;;21.40;4.75;;;0.50;96.80;;;;;;4933894;28;20050;-72
2023/04/27 03:17:08;;;;;;;12.63;3.97;;;0.50;96.60;;;;;;4965421;28;20143;-72
2023/04/27 03:19:35;;;;;;;12.68;4.05;;;0.50;96.90;;;;;;4964721;28;20047;-72
2023/04/27 03:22:02;;;;;;;17.40;4.63;;;0.50;96.70;;;;;;4965321;28;20055;-71
2023/04/27 03:24:29;;;;;;;27.50;4.88;;;0.50;96.90;;;;;;4950201;28;20061;-72
2023/04/27 03:26:56;;;;;;;14.48;5.28;;;0.50;96.90;;;;;;4965010;28;21437;-72
2023/04/27 03:29:23;;;;;;;21.23;5.65;;;0.50;96.90;;;;;;4964769;28;20065;-72
2023/04/27 03:31:50;;;;;;;18.80;4.72;;;0.40;96.60;;;;;;4950248;28;20057;-71
2023/04/27 03:34:17;;;;;;;9.15;4.45;;;0.40;96.80;;;;;;4950832;28;20141;-72
2023/04/27 03:36:43;;;;;;;17.52;5.05;;;0.40;97.00;;;;;;4963405;28;20047;-72
2023/04/27 03:39:10;;;;;;;17.77;4.47;;;0.30;97.00;;;;;;4965458;28;20078;-72
2023/04/27 03:41:37;;;;;;;21.80;5.18;;;0.30;97.30;;;;;;4950198;28;20058;-71
2023/04/27 03:44:05;;;;;;;19.80;4.93;;;0.30;97.40;;;;;;4963519;28;20061;-72
2023/04/27 03:46:33;;;;;;;15.77;5.22;;;0.30;97.50;;;;;;4940824;28;20055;-72
2023/04/27 03:48:59;;;;;;;14.18;4.63;;;0.30;98.00;;;;;;4949558;28;20129;-72
2023/04/27 03:51:26;;;;;;;16.15;4.25;;;0.30;97.80;;;;;;4951187;28;20630;-71
2023/04/27 03:53:53;;;;;;;10.63;3.85;;;0.30;97.90;;;;;;4950509;28;20074;-71
2023/04/27 03:56:20;;;;;;;23.00;5.13;;;0.30;98.10;;;;;;4947861;28;20046;-72
2023/04/27 03:58:47;;;;;;;14.35;4.15;;;0.20;98.00;;;;;;4951127;28;20050;-72
2023/04/27 04:01:15;;;;;;;22.13;5.30;;;0.20;98.40;;;;;;4928793;28;20058;-71
2023/04/27 04:03:42;;;;;;;16.23;4.28;;;0.30;98.70;;;;;;4950320;28;20055;-72
2023/04/27 04:06:09;;;;;;;26.83;5.28;;;0.20;98.70;;;;;;4949862;28;20401;-72
2023/04/27 04:08:36;;;;;;;25.52;5.43;;;0.30;98.90;;;;;;4950667;28;20055;-72
2023/04/27 04:11:03;;;;;;;14.95;4.82;;;0.30;98.90;;;;;;4953474;28;20051;-72
2023/04/27 04:13:30;;;;;;;99.38;7.25;;;0.30;98.90;;;;;;4963394;28;20388;-72
2023/04/27 04:16:05;;;;;;;19.40;6.03;;;0.30;98.90;;;;;;4949350;28;20556;-71
2023/04/27 04:18:33;;;;;;;25.98;5.50;;;0.40;99.20;;;;;;4949372;28;20054;-72
2023/04/27 04:21:00;;;;;;;24.98;4.47;;;0.30;99.00;;;;;;4949625;28;20058;-72
2023/04/27 04:23:27;;;;;;;19.50;4.68;;;0.40;99.20;;;;;;4950314;28;20070;-72
2023/04/27 04:25:57;;;;;;;15.57;4.82;;;0.40;99.50;;;;;;4933102;28;20177;-72
2023/04/27 04:28:24;;;;;;;19.70;5.10;;;0.40;99.40;;;;;;4950161;28;20051;-72
2023/04/27 04:30:51;;;;;;;18.65;4.13;;;0.50;99.70;;;;;;4950271;28;20602;-72
2023/04/27 04:33:18;;;;;;;36.50;5.32;;;0.60;99.40;;;;;;4932440;28;20047;-72
2023/04/27 04:35:45;;;;;;;13.52;5.28;;;0.60;99.50;;;;;;4936635;28;20051;-72
2023/04/27 04:38:12;;;;;;;18.30;4.53;;;0.70;99.40;;;;;;4950822;28;20051;-72
2023/04/27 04:40:41;;;;;;;14.10;3.70;;;0.70;99.20;;;;;;4928788;28;20582;-72
2023/04/27 04:43:12;;;;;;;16.75;4.50;;;0.70;99.00;;;;;;4949380;28;21420;-73
2023/04/27 04:45:39;;;;;;;11.85;4.32;;;0.80;99.00;;;;;;4950332;28;20070;-73
2023/04/27 04:48:06;;;;;;;20.05;4.75;;;0.80;99.00;;;;;;4949705;28;20055;-75
2023/04/27 04:50:32;;;;;;;22.45;5.32;;;0.90;99.20;;;;;;4932085;28;20058;-75
2023/04/27 04:52:59;;;;;;;26.00;6.47;;;0.90;98.80;;;;;;4950767;28;20054;-75
2023/04/27 04:55:27;;;;;;;14.00;4.43;;;1.00;98.70;;;;;;4953995;28;20058;-75
2023/04/27 04:57:53;;;;;;;14.40;5.78;;;1.00;98.60;;;;;;4932785;28;20059;-78
2023/04/27 05:00:21;;;;;;;22.40;6.43;;;1.10;98.70;;;;;;4949654;28;20058;-75
2023/04/27 05:02:48;;;;;;;11.93;4.65;;;1.20;98.70;;;;;;4933263;28;20368;-76
2023/04/27 05:05:15;;;;;;;17.77;4.82;;;1.20;98.50;;;;;;4964703;28;20522;-76
2023/04/27 05:07:42;;;;;;;21.63;6.15;;;1.30;98.50;;;;;;4950798;28;20059;-77
2023/04/27 05:10:09;;;;;;;23.50;5.65;;;1.40;98.40;;;;;;4951916;28;20149;-74
2023/04/27 05:12:36;;;;;;;13.02;4.70;;;1.50;98.20;;;;;;4950593;28;20591;-76
2023/04/27 05:15:04;;;;;;;17.00;5.15;;;1.60;98.00;;;;;;4950551;28;20057;-78
2023/04/27 05:17:31;;;;;;;17.52;5.18;;;1.60;97.90;;;;;;4955796;28;20503;-77
2023/04/27 05:19:58;;;;;;;34.00;5.97;;;1.70;97.30;;;;;;4934228;28;20853;-84
2023/04/27 05:22:25;;;;;;;14.98;5.60;;;1.80;97.30;;;;;;4949054;28;20062;-83
2023/04/27 05:24:51;;;;;;;19.95;5.20;;;1.80;97.10;;;;;;4950616;28;20098;-77
2023/04/27 05:27:18;;;;;;;18.70;6.03;;;2.00;96.90;;;;;;4949130;28;20050;-72
2023/04/27 05:29:45;;;;;;;19.17;5.97;;;2.00;96.70;;;;;;4964165;28;20059;-74
2023/04/27 05:32:12;;;;;;;20.70;5.82;;;2.20;96.90;;;;;;4965384;28;20061;-74
2023/04/27 05:34:39;;;;;;;17.67;4.93;;;2.20;96.90;;;;;;4954813;28;20051;-72
2023/04/27 05:37:06;;;;;;;21.27;6.55;;;2.30;96.70;;;;;;4950773;28;20071;-73
2023/04/27 05:39:33;;;;;;;18.55;5.50;;;2.40;96.20;;;;;;4967637;28;20047;-73
2023/04/27 05:42:01;;;;;;;31.08;6.22;;;2.50;95.70;;;;;;4951040;28;20054;-73
2023/04/27 05:44:28;;;;;;;15.63;5.53;;;2.60;95.10;;;;;;4952326;28;20062;-73
2023/04/27 05:46:55;;;;;;;17.25;5.13;;;2.70;94.20;;;;;;4952132;28;20059;-73
2023/04/27 05:49:22;;;;;;;12.02;4.75;;;2.80;94.30;;;;;;4953482;28;20059;-73
2023/04/27 05:51:50;;;;;;;16.05;4.95;;;3.00;93.10;;;;;;4956987;28;20048;-73
2023/04/27 05:54:17;;;;;;;13.85;4.72;;;3.00;93.10;;;;;;4967751;28;20516;-73
2023/04/27 05:56:44;;;;;;;25.20;5.63;;;3.20;92.70;;;;;;4953644;28;20087;-73
2023/04/27 05:59:11;;;;;;;19.58;5.57;;;3.30;91.80;;;;;;4967789;28;20058;-73
2023/04/27 06:01:38;;;;;;;17.75;5.38;;;3.40;92.10;;;;;;4952782;28;20078;-73
2023/04/27 06:04:05;;;;;;;12.23;4.25;;;3.50;90.80;;;;;;4952581;28;20047;-73
2023/04/27 06:06:34;;;;;;;17.10;5.60;;;3.70;90.70;;;;;;4958383;28;21359;-73
2023/04/27 06:09:01;;;;;;;22.80;5.55;;;3.90;91.30;;;;;;4956471;28;20109;-73
2023/04/27 06:11:28;;;;;;;21.92;5.70;;;4.10;90.90;;;;;;4953055;28;20082;-73
2023/04/27 06:13:54;;;;;;;17.63;5.03;;;4.40;88.60;;;;;;4945104;28;20137;-73
2023/04/27 06:16:22;;;;;;;23.02;4.85;;;4.90;87.60;;;;;;4953135;28;20050;-73
2023/04/27 06:18:50;;;;;;;12.88;5.13;;;5.40;85.40;;;;;;4952965;28;20078;-73
2023/04/27 06:21:16;;;;;;;17.40;4.55;;;5.80;82.20;;;;;;4952726;28;20051;-74
2023/04/27 06:23:43;;;;;;;30.98;5.15;;;6.30;80.10;;;;;;4935336;28;20051;-73
2023/04/27 06:26:10;;;;;;;13.88;4.25;;;6.90;78.40;;;;;;4967310;28;20972;-73
2023/04/27 06:28:37;;;;;;;13.90;4.75;;;7.60;75.90;;;;;;4958253;28;20091;-73
2023/04/27 06:31:05;;;;;;;10.85;3.63;;;8.20;73.10;;;;;;4952353;28;20050;-73
2023/04/27 06:33:32;;;;;;;11.43;3.50;;;8.80;70.40;;;;;;4952510;28;20418;-73
2023/04/27 06:36:00;;;;;;;14.98;3.35;;;9.50;68.20;;;;;;4953322;28;20055;-73
2023/04/27 06:38:27;;;;;;;8.20;2.80;;;10.00;67.00;;;;;;4946396;28;20051;-73
2023/04/27 06:40:54;;;;;;;12.68;3.05;;;10.30;63.80;;;;;;4951303;28;20054;-73
2023/04/27 06:43:21;;;;;;;8.57;3.30;;;10.70;64.30;;;;;;4952376;28;20985;-73
2023/04/27 06:45:48;;;;;;;31.10;3.65;;;11.50;62.00;;;;;;4951643;28;21123;-73
2023/04/27 06:48:15;;;;;;;12.40;2.90;;;12.10;60.90;;;;;;4951427;28;20149;-73
2023/04/27 06:50:43;;;;;;;12.07;3.00;;;12.10;59.70;;;;;;4965736;28;20087;-74
2023/04/27 06:53:10;;;;;;;8.23;2.72;;;12.70;58.00;;;;;;4951806;28;20050;-74
2023/04/27 06:55:37;;;;;;;7.22;2.35;;;13.20;56.30;;;;;;4966142;28;20050;-73
2023/04/27 06:58:03;;;;;;;11.02;2.33;;;12.90;55.70;;;;;;4966716;28;20055;-73
2023/04/27 07:00:30;;;;;;;11.52;3.00;;;12.50;57.60;;;;;;4930128;28;20051;-73
2023/04/27 07:02:57;;;;;;;8.48;2.17;;;12.60;56.70;;;;;;4952175;28;20051;-73
2023/04/27 07:05:25;;;;;;;6.05;2.50;;;12.90;55.80;;;;;;4967069;28;20054;-73
2023/04/27 07:07:52;;;;;;;12.18;3.40;;;12.90;55.50;;;;;;4952131;28;20065;-74
2023/04/27 07:10:19;;;;;;;8.85;2.63;;;13.30;55.60;;;;;;4965902;28;20054;-73
2023/04/27 07:12:46;;;;;;;6.32;2.30;;;14.00;56.00;;;;;;4951345;28;20059;-73
2023/04/27 07:15:13;;;;;;;10.57;2.10;;;13.80;54.70;;;;;;4952121;28;20533;-73
2023/04/27 07:17:40;;;;;;;8.70;2.45;;;14.00;54.40;;;;;;4951855;28;20474;-73
2023/04/27 07:20:08;;;;;;;10.70;2.80;;;14.20;53.10;;;;;;4951884;28;20373;-73
2023/04/27 07:22:35;;;;;;;6.85;2.25;;;14.60;53.20;;;;;;4966471;28;20495;-74
2023/04/27 07:25:02;;;;;;;6.78;2.40;;;15.00;52.80;;;;;;4950931;28;20051;-74
2023/04/27 07:27:30;;;;;;;5.28;2.20;;;14.30;52.40;;;;;;4952382;28;20516;-74
2023/04/27 07:29:58;;;;;;;10.25;2.08;;;13.20;52.90;;;;;;4951997;28;20058;-74
2023/04/27 07:32:25;;;;;;;9.38;2.80;;;12.70;53.60;;;;;;4951675;28;20072;-73
2023/04/27 07:34:54;;;;;;;19.52;2.63;;;12.90;53.90;;;;;;4955609;28;20074;-74
2023/04/27 07:37:22;;;;;;;12.70;2.03;;;12.10;54.10;;;;;;4951108;28;20047;-74
2023/04/27 07:39:53;;;;;;;9.05;2.22;;;11.70;54.30;;;;;;4950970;28;20491;-74
2023/04/27 07:42:23;;;;;;;8.10;2.17;;;11.20;59.00;;;;;;4965517;28;21028;-74
2023/04/27 07:44:51;;;;;;;13.38;2.65;;;11.60;57.70;;;;;;4950863;28;20782;-73
2023/04/27 07:47:18;;;;;;;6.32;1.63;;;11.40;56.10;;;;;;4951623;28;20064;-74
2023/04/27 07:49:45;;;;;;;5.70;2.10;;;10.90;54.50;;;;;;4949549;28;20059;-73
2023/04/27 07:52:13;;;;;;;3.92;1.50;;;10.10;55.30;;;;;;4950688;28;20134;-73
2023/04/27 07:54:40;;;;;;;10.55;1.77;;;9.70;54.80;;;;;;4951185;28;20051;-73
2023/04/27 07:57:08;;;;;;;5.97;1.60;;;9.20;56.70;;;;;;4928805;28;20390;-73
2023/04/27 07:59:36;;;;;;;3.92;1.60;;;9.30;61.50;;;;;;4950031;28;20055;-74
2023/04/27 08:02:03;;;;;;;5.55;1.67;;;10.60;59.10;;;;;;4949917;28;20412;-73
2023/04/27 08:04:46;;;;;;;11.15;2.63;;;11.70;56.60;;;;;;4951248;28;20051;-73
2023/04/27 08:07:15;;;;;;;10.02;2.30;;;12.40;51.50;;;;;;4950424;28;20046;-74
2023/04/27 08:09:43;;;;;;;4.97;1.85;;;12.00;51.30;;;;;;4954206;28;20086;-73
2023/04/27 08:12:10;;;;;;;9.32;1.70;;;11.50;52.90;;;;;;4935700;28;20141;-73
2023/04/27 08:14:37;;;;;;;2.67;1.55;;;11.30;54.00;;;;;;4950723;28;20128;-73
2023/04/27 08:17:04;;;;;;;3.13;1.58;;;11.50;56.70;;;;;;4965330;28;20066;-73
2023/04/27 08:19:31;;;;;;;8.45;2.03;;;12.00;50.90;;;;;;4950876;28;20048;-73
2023/04/27 08:21:58;;;;;;;7.53;2.05;;;11.70;55.40;;;;;;4964798;28;20154;-73
2023/04/27 08:24:25;;;;;;;11.80;2.47;;;11.80;52.50;;;;;;4950694;28;20507;-74
2023/04/27 08:26:51;;;;;;;9.80;1.90;;;11.60;56.60;;;;;;4950879;28;20453;-74
2023/04/27 08:29:18;;;;;;;4.68;1.48;;;12.10;52.00;;;;;;4950555;28;20902;-73
2023/04/27 08:31:54;;;;;;;11.60;2.00;;;11.80;51.50;;;;;;4950489;28;20101;-73
2023/04/27 08:34:22;;;;;;;11.35;2.00;;;11.30;52.90;;;;;;4950535;28;20047;-73
2023/04/27 08:36:50;;;;;;;11.18;2.08;;;10.70;54.90;;;;;;4950748;28;20579;-73
2023/04/27 08:39:17;;;;;;;11.80;1.75;;;10.40;56.10;;;;;;4950355;28;20062;-74
2023/04/27 08:41:45;;;;;;;10.30;1.85;;;10.80;58.50;;;;;;4949609;28;20046;-74
2023/04/27 08:44:12;;;;;;;3.83;1.33;;;10.90;50.90;;;;;;4950331;28;20057;-74
2023/04/27 08:46:39;;;;;;;6.05;1.60;;;10.30;53.00;;;;;;4950709;28;20623;-74
2023/04/27 08:49:06;;;;;;;10.07;2.00;;;9.90;55.30;;;;;;4964338;28;20066;-73
2023/04/27 08:51:34;;;;;;;9.30;1.50;;;10.10;57.80;;;;;;4950406;28;20753;-74
2023/04/27 08:54:01;;;;;;;14.13;1.88;;;10.30;56.10;;;;;;4956131;28;20490;-74
2023/04/27 08:56:29;;;;;;;5.15;1.63;;;10.30;55.20;;;;;;4937757;28;20166;-74
2023/04/27 08:58:57;;;;;;;6.32;2.13;;;10.20;56.80;;;;;;4950831;28;20146;-74
2023/04/27 09:01:26;;;;;;;3.40;1.50;;;10.10;56.70;;;;;;4950693;28;20232;-73
2023/04/27 09:04:00;;;;;;;10.43;1.73;;;10.20;57.20;;;;;;4950703;28;20422;-74
2023/04/27 09:06:36;;;;;;;8.65;1.80;;;10.30;58.00;;;;;;4954642;28;20055;-74
2023/04/27 09:09:03;;;;;;;6.22;1.40;;;10.10;54.40;;;;;;4953633;28;20062;-74
2023/04/27 09:11:36;;;;;;;8.95;1.50;;;10.20;55.50;;;;;;4968341;28;20704;-74
2023/04/27 09:14:17;;;;;;;7.20;1.35;;;10.40;53.40;;;;;;4952899;28;20057;-74
2023/04/27 09:16:44;;;;;;;5.25;1.55;;;10.40;53.00;;;;;;4967753;28;20097;-74
2023/04/27 09:19:23;;;;;;;8.30;1.35;;;9.90;53.20;;;;;;4967458;28;20062;-74
2023/04/27 09:21:50;;;;;;;7.53;1.83;;;9.90;56.20;;;;;;4942982;28;20084;-74
2023/04/27 09:24:17;;;;;;;7.93;1.52;;;11.40;55.10;;;;;;4966230;28;20058;-74
2023/04/27 09:26:49;;;;;;;3.80;1.23;;;12.10;55.60;;;;;;4968102;28;20058;-74
2023/04/27 09:29:16;;;;;;;4.28;1.20;;;12.90;49.20;;;;;;4952974;28;20202;-74
2023/04/27 09:31:43;;;;;;;4.10;1.88;;;12.50;48.30;;;;;;4951394;28;20086;-74
2023/04/27 09:34:10;;;;;;;6.25;1.30;;;12.30;49.40;;;;;;4945198;28;20141;-74
2023/04/27 09:36:38;;;;;;;4.07;1.33;;;11.90;49.40;;;;;;4953543;28;20142;-74
2023/04/27 09:39:05;;;;;;;7.13;1.40;;;11.60;50.00;;;;;;4952718;28;20051;-74
2023/04/27 09:41:32;;;;;;;5.68;2.15;;;11.40;48.80;;;;;;4953050;28;20055;-74
2023/04/27 09:44:00;;;;;;;9.38;1.73;;;11.40;51.60;;;;;;4952455;28;20062;-74
2023/04/27 09:46:29;;;;;;;7.03;1.77;;;11.70;51.30;;;;;;4952052;28;20054;-74
2023/04/27 09:48:57;;;;;;;4.22;1.48;;;11.70;52.20;;;;;;4958128;28;20054;-74
2023/04/27 09:51:23;;;;;;;6.63;1.60;;;11.60;50.20;;;;;;4952940;28;20063;-74
2023/04/27 09:53:55;;;;;;;3.47;1.60;;;11.50;50.50;;;;;;4953155;28;20410;-74
2023/04/27 09:56:40;;;;;;;5.35;1.45;;;11.20;50.80;;;;;;4936053;28;20055;-74
2023/04/27 09:59:22;;;;;;;5.30;1.80;;;11.10;50.70;;;;;;4952862;28;20371;-74
2023/04/27 10:01:55;;;;;;;3.10;1.40;;;11.10;51.60;;;;;;4952955;28;20514;-74
2023/04/27 10:04:22;;;;;;;4.20;1.60;;;11.20;50.70;;;;;;4953363;28;20055;-74
2023/04/27 10:06:55;;;;;;;5.10;1.42;;;10.80;51.00;;;;;;4967384;28;20055;-74
2023/04/27 10:09:24;;;;;;;6.20;2.53;;;10.80;52.00;;;;;;4952767;28;20055;-73
2023/04/27 10:11:53;;;;;;;3.53;1.35;;;10.60;51.80;;;;;;4967458;28;20076;-73
2023/04/27 10:14:22;;;;;;;2.55;1.42;;;10.40;53.40;;;;;;4953034;28;20141;-73
2023/04/27 10:16:53;;;;;;;4.45;1.55;;;10.10;56.90;;;;;;4953110;28;20359;-74
2023/04/27 10:19:22;;;;;;;3.25;1.17;;;11.50;53.40;;;;;;4966554;28;20467;-74
2023/04/27 10:21:59;;;;;;;7.32;2.33;;;11.70;53.60;;;;;;4945675;28;20504;-74
2023/04/27 10:24:37;;;;;;;6.05;1.40;;;13.20;55.90;;;;;;4953060;28;20050;-74
2023/04/27 10:27:05;;;;;;;3.28;1.30;;;15.10;51.50;;;;;;4952455;28;20118;-74
2023/04/27 10:29:40;;;;;;;4.03;1.77;;;16.20;49.50;;;;;;4952518;28;20059;-74
2023/04/27 10:32:24;;;;;;;3.75;1.30;;;16.70;42.40;;;;;;4952121;28;20058;-74
2023/04/27 10:35:02;;;;;;;7.15;1.63;;;15.30;42.40;;;;;;4966462;28;20404;-74
2023/04/27 10:37:42;;;;;;;9.13;1.45;;;14.60;43.40;;;;;;4966801;28;20054;-74
2023/04/27 10:40:16;;;;;;;5.25;1.73;;;13.20;45.00;;;;;;4966013;28;20573;-74
2023/04/27 10:42:44;;;;;;;4.32;1.23;;;12.70;45.80;;;;;;4952039;28;20756;-73
2023/04/27 10:45:12;;;;;;;3.95;1.00;;;12.00;46.00;;;;;;4945577;28;20355;-74
2023/04/27 10:47:42;;;;;;;5.15;0.95;;;12.20;47.10;;;;;;4966767;28;20054;-74
2023/04/27 10:50:15;;;;;;;2.15;1.00;;;14.20;46.20;;;;;;4957102;28;20153;-74
2023/04/27 10:52:45;;;;;;;1.67;0.82;;;15.30;38.50;;;;;;4952137;28;20576;-74
2023/04/27 10:55:22;;;;;;;1.65;0.80;;;15.40;42.00;;;;;;4951526;28;20051;-74
2023/04/27 10:57:50;;;;;;;9.75;0.75;;;15.50;41.30;;;;;;4957448;28;20057;-74
2023/04/27 11:00:24;;;;;;;2.67;0.70;;;16.50;35.30;;;;;;4952065;28;20472;-74
2023/04/27 11:02:52;;;;;;;4.93;1.63;;;15.50;36.90;;;;;;4951628;28;20562;-74
2023/04/27 11:05:32;;;;;;;9.10;1.60;;;14.30;39.70;;;;;;4945230;28;20057;-73
2023/04/27 11:08:09;;;;;;;2.15;0.65;;;14.20;38.90;;;;;;4952179;28;20137;-74
2023/04/27 11:10:42;;;;;;;5.57;0.90;;;13.20;39.00;;;;;;4951527;28;20051;-74
2023/04/27 11:13:10;;;;;;;3.08;1.52;;;13.70;43.90;;;;;;4957522;28;20366;-74
2023/04/27 11:15:43;;;;;;;2.97;0.68;;;14.70;39.80;;;;;;4951757;28;20053;-74
2023/04/27 11:18:10;;;;;;;2.28;1.00;;;15.00;37.60;;;;;;4951022;28;20046;-74
2023/04/27 11:20:37;;;;;;;3.03;1.40;;;14.80;41.70;;;;;;4965281;28;20057;-74
2023/04/27 11:23:04;;;;;;;2.45;1.20;;;15.70;40.50;;;;;;4965639;28;20058;-74
2023/04/27 11:25:31;;;;;;;3.75;1.65;;;16.40;39.70;;;;;;4951102;28;20055;-74
2023/04/27 11:27:58;;;;;;;4.38;1.25;;;17.50;41.00;;;;;;4965376;28;20050;-74
2023/04/27 11:30:25;;;;;;;5.80;1.15;;;18.80;40.10;;;;;;4965696;28;20091;-74
2023/04/27 11:32:52;;;;;;;4.85;1.20;;;18.80;35.10;;;;;;4950961;28;20057;-74
2023/04/27 11:35:19;;;;;;;3.92;1.33;;;17.90;34.10;;;;;;4950547;28;20475;-74
2023/04/27 11:37:56;;;;;;;7.70;1.40;;;16.70;37.20;;;;;;4951447;28;20057;-74
2023/04/27 11:40:24;;;;;;;3.67;1.08;;;17.50;35.70;;;;;;4951462;28;20086;-73
2023/04/27 11:43:03;;;;;;;4.78;1.35;;;15.40;36.10;;;;;;4953951;28;20047;-73
2023/04/27 11:45:30;;;;;;;7.35;1.15;;;15.10;39.40;;;;;;4950715;28;20051;-74
2023/04/27 11:48:00;;;;;;;11.32;1.67;;;14.90;39.70;;;;;;4965285;28;20050;-74
2023/04/27 11:50:26;;;;;;;12.73;1.70;;;14.20;40.00;;;;;;4951077;28;20410;-73
2023/04/27 11:52:54;;;;;;;3.58;1.60;;;13.50;41.00;;;;;;4965131;28;20050;-73
2023/04/27 11:55:21;;;;;;;11.48;2.67;;;13.10;41.10;;;;;;4964693;28;20142;-73
2023/04/27 11:57:48;;;;;;;6.13;1.98;;;13.00;43.30;;;;;;4949987;28;20062;-74
2023/04/27 12:00:16;;;;;;;4.28;1.60;;;14.00;46.00;;;;;;4964284;28;20057;-73
2023/04/27 12:02:43;;;;;;;5.10;1.67;;;16.10;40.90;;;;;;4950854;28;20390;-73
2023/04/27 12:05:11;;;;;;;4.75;1.52;;;17.80;41.50;;;;;;4949792;28;20058;-74
2023/04/27 12:07:40;;;;;;;4.45;1.45;;;19.00;38.30;;;;;;4950546;28;20055;-74
2023/04/27 12:10:07;;;;;;;5.15;1.70;;;19.70;37.00;;;;;;4950368;28;20058;-74
2023/04/27 12:12:34;;;;;;;6.53;2.10;;;19.00;34.90;;;;;;4950532;28;20055;-74
2023/04/27 12:15:02;;;;;;;13.65;1.83;;;17.90;38.90;;;;;;4949816;28;20506;-74
2023/04/27 12:17:29;;;;;;;6.63;1.58;;;18.90;38.20;;;;;;4951132;28;20491;-74
2023/04/27 12:19:56;;;;;;;4.85;1.35;;;19.50;37.50;;;;;;4964134;28;20051;-74
2023/04/27 12:22:22;;;;;;;1.73;0.80;;;20.40;35.70;;;;;;4928365;28;20051;-73
2023/04/27 12:24:50;;;;;;;7.13;1.15;;;20.60;36.10;;;;;;4965146;28;20065;-74
2023/04/27 12:27:17;;;;;;;3.78;0.85;;;20.60;33.90;;;;;;4950630;28;20055;-74
2023/04/27 12:29:43;;;;;;;5.65;1.77;;;20.90;34.40;;;;;;4950872;28;20478;-74
2023/04/27 12:32:10;;;;;;;5.85;1.08;;;20.90;33.80;;;;;;4949443;28;20574;-74
2023/04/27 12:34:38;;;;;;;4.47;1.60;;;20.60;30.80;;;;;;4950092;28;20404;-74
2023/04/27 12:37:05;;;;;;;6.25;1.27;;;18.00;31.90;;;;;;4950877;28;20072;-74
2023/04/27 12:39:33;;;;;;;8.63;1.67;;;16.30;34.50;;;;;;4936926;28;20424;-74
2023/04/27 12:42:00;;;;;;;2.42;1.02;;;16.50;36.90;;;;;;4945613;28;20057;-74
2023/04/27 12:44:27;;;;;;;2.92;1.00;;;17.50;33.70;;;;;;4955120;28;20062;-74
2023/04/27 12:46:55;;;;;;;2.78;1.13;;;17.40;37.20;;;;;;4954113;28;20057;-74
2023/04/27 12:49:21;;;;;;;7.55;1.40;;;17.20;34.00;;;;;;4954264;28;20075;-73